Terminal Aerodrome Forecast
Issued by NWS

Home | Current Version | Previous Version | Text Only | Print | Product List | Glossary On
Versions: 1 2 3 4 5 6 7 8 9 10 11 12 13 14 15 16 17
000
FTUS42 KMLB 030537
TAFLEE
TAF
KLEE 030537Z 0306/0406 18012G20KT P6SM FEW025 SCT050 OVC150
     FM031400 22012KT P6SM SCT025 BKN060 OVC100
      TEMPO 0314/0317 3SM SHRA BKN025
     FM031700 24015G23KT P6SM VCTS SCT040CB BKN080
      TEMPO 0318/0321 3SM TSRA BKN020CB OVC040
     FM032200 24011KT P6SM SCT030 OVC080
      TEMPO 0322/0324 5SM SHRA BKN025
     FM040100 23007KT P6SM SCT030 BKN100=

USA.gov is the U.S. government's official web portal to all federal, state and local government web resources and services.